createdAt,value
2022-08-21T00:00:01.632Z,5.00
2022-08-21T00:02:30.418Z,3.57
2022-08-21T00:04:58.134Z,3.20
2022-08-21T00:07:26.927Z,6.87
2022-08-21T00:09:55.114Z,3.30
2022-08-21T00:12:23.562Z,2.27
2022-08-21T00:14:51.223Z,2.30
2022-08-21T00:17:26.218Z,2.53
2022-08-21T00:19:53.939Z,6.43
2022-08-21T00:22:22.688Z,3.80
2022-08-21T00:24:50.741Z,1.70
2022-08-21T00:27:18.400Z,2.30
2022-08-21T00:29:46.317Z,2.10
2022-08-21T00:32:14.270Z,8.70
2022-08-21T00:35:00.276Z,4.40
2022-08-21T00:37:28.180Z,2.10
2022-08-21T00:39:58.329Z,2.87
2022-08-21T00:42:26.327Z,2.33
2022-08-21T00:44:54.047Z,2.23
2022-08-21T00:47:22.127Z,1.90
2022-08-21T00:49:51.146Z,1.80
2022-08-21T00:52:22.771Z,2.30
2022-08-21T00:54:51.194Z,2.67
2022-08-21T00:57:22.102Z,1.97
2022-08-21T00:59:57.851Z,3.43
2022-08-21T01:02:26.733Z,3.50
2022-08-21T01:04:55.877Z,4.17
2022-08-21T01:07:23.745Z,3.40
2022-08-21T01:09:55.434Z,4.10
2022-08-21T01:12:23.964Z,1.70
2022-08-21T01:14:51.770Z,4.00
2022-08-21T01:17:22.486Z,2.30
2022-08-21T01:19:50.146Z,2.30
2022-08-21T01:22:20.436Z,2.10
2022-08-21T01:24:48.129Z,2.77
2022-08-21T01:27:16.064Z,6.60
2022-08-21T01:29:47.308Z,1.47
2022-08-21T01:32:17.677Z,3.00
2022-08-21T01:34:51.029Z,6.83
2022-08-21T01:37:21.119Z,2.80
2022-08-21T01:39:48.962Z,2.93
2022-08-21T01:42:17.184Z,3.97
2022-08-21T01:44:45.504Z,2.50
2022-08-21T01:47:15.909Z,2.20
2022-08-21T01:49:46.269Z,3.50
2022-08-21T01:52:14.121Z,2.87
2022-08-21T01:54:43.788Z,4.60
2022-08-21T01:57:12.954Z,1.87
2022-08-21T01:59:41.143Z,2.97
2022-08-21T02:02:09.438Z,2.70
2022-08-21T02:04:37.299Z,2.13
2022-08-21T02:07:08.349Z,1.70
2022-08-21T02:09:36.202Z,1.50
2022-08-21T02:12:10.037Z,1.67
2022-08-21T02:14:37.734Z,2.13
2022-08-21T02:17:09.255Z,5.13
2022-08-21T02:19:40.334Z,1.67
2022-08-21T02:22:09.065Z,2.20
2022-08-21T02:24:38.516Z,1.70
2022-08-21T02:27:26.570Z,8.20
2022-08-21T02:29:56.340Z,2.50
2022-08-21T02:32:24.019Z,2.67
2022-08-21T02:34:51.709Z,4.40
2022-08-21T02:37:19.415Z,3.33
2022-08-21T02:39:47.185Z,2.60
2022-08-21T02:42:14.962Z,2.70
2022-08-21T02:44:44.170Z,3.00
2022-08-21T02:47:11.897Z,1.67
2022-08-21T02:49:39.622Z,1.73
2022-08-21T02:52:07.522Z,3.60
2022-08-21T02:54:35.206Z,4.33
2022-08-21T02:57:02.989Z,5.00
2022-08-21T02:59:30.709Z,3.77
2022-08-21T03:01:59.963Z,2.07
2022-08-21T03:04:27.679Z,4.03
2022-08-21T03:06:55.427Z,4.30
2022-08-21T03:09:23.161Z,4.00
2022-08-21T03:11:51.373Z,2.23
2022-08-21T03:14:19.435Z,6.23
2022-08-21T03:16:47.551Z,2.80
2022-08-21T03:19:16.710Z,2.10
2022-08-21T03:21:44.505Z,2.53
2022-08-21T03:24:12.241Z,2.17
2022-08-21T03:26:41.442Z,1.60
2022-08-21T03:29:09.329Z,1.90
2022-08-21T03:31:37.112Z,2.80
2022-08-21T03:34:04.857Z,5.33
2022-08-21T03:36:33.936Z,3.63
2022-08-21T03:39:01.689Z,2.63
2022-08-21T03:41:29.407Z,4.23
2022-08-21T03:43:57.112Z,1.53
2022-08-21T03:46:24.782Z,17.63
2022-08-21T03:48:53.647Z,1.70
2022-08-21T03:51:21.436Z,2.37
2022-08-21T03:53:50.545Z,2.00
2022-08-21T03:56:18.296Z,2.33
2022-08-21T03:58:46.597Z,3.60
2022-08-21T04:01:14.349Z,2.80
2022-08-21T04:03:42.122Z,5.10
2022-08-21T04:06:09.858Z,1.90
2022-08-21T04:08:37.672Z,2.20
2022-08-21T04:11:08.366Z,4.77
2022-08-21T04:13:36.236Z,3.90
2022-08-21T04:16:12.651Z,2.03
2022-08-21T04:18:40.569Z,4.30
2022-08-21T04:21:10.966Z,2.80
2022-08-21T04:23:39.378Z,2.17
2022-08-21T04:26:08.784Z,2.83
2022-08-21T04:28:36.633Z,4.13
2022-08-21T04:31:05.027Z,4.07
2022-08-21T04:33:32.888Z,3.67
2022-08-21T04:36:00.598Z,2.90
2022-08-21T04:38:33.157Z,2.30
2022-08-21T04:41:06.422Z,2.90
2022-08-21T04:43:35.588Z,9.73
2022-08-21T04:46:03.414Z,2.67
2022-08-21T04:48:31.245Z,2.87
2022-08-21T04:51:03.429Z,5.30
2022-08-21T04:53:37.127Z,2.17
2022-08-21T04:56:10.175Z,6.00
2022-08-21T04:58:42.566Z,3.30
2022-08-21T05:01:15.190Z,3.00
2022-08-21T05:03:43.097Z,3.97
2022-08-21T05:06:16.903Z,2.80
2022-08-21T05:08:47.546Z,4.00
2022-08-21T05:11:15.271Z,1.87
2022-08-21T05:13:44.443Z,2.00
2022-08-21T05:16:12.196Z,3.50
2022-08-21T05:18:40.093Z,3.30
2022-08-21T05:21:07.792Z,2.37
2022-08-21T05:23:35.780Z,4.43
2022-08-21T05:26:04.894Z,2.33
2022-08-21T05:28:33.093Z,3.80
2022-08-21T05:31:02.595Z,2.40
2022-08-21T05:33:30.541Z,5.20
2022-08-21T05:35:58.521Z,3.03
2022-08-21T05:38:29.509Z,2.63
2022-08-21T05:40:57.664Z,3.60
2022-08-21T05:43:25.565Z,2.33
2022-08-21T05:45:53.382Z,3.47
2022-08-21T05:48:24.751Z,4.10
2022-08-21T05:50:53.729Z,4.73
2022-08-21T05:53:23.139Z,2.87
2022-08-21T05:55:51.922Z,7.03
2022-08-21T05:58:23.816Z,2.63
2022-08-21T06:00:53.794Z,2.00
2022-08-21T06:03:26.175Z,3.03
2022-08-21T06:05:54.340Z,3.27
2022-08-21T06:08:23.454Z,3.93
2022-08-21T06:10:53.792Z,4.10
2022-08-21T06:13:22.893Z,5.27
2022-08-21T06:15:51.794Z,2.67
2022-08-21T06:18:19.711Z,5.27
2022-08-21T06:20:48.915Z,3.73
2022-08-21T06:23:16.667Z,2.13
2022-08-21T06:25:44.526Z,3.70
2022-08-21T06:28:13.727Z,3.90
2022-08-21T06:30:42.063Z,4.07
2022-08-21T06:33:10.293Z,4.60
2022-08-21T06:35:38.186Z,3.77
2022-08-21T06:38:11.139Z,2.77
2022-08-21T06:40:44.829Z,3.17
2022-08-21T06:43:18.339Z,3.17
2022-08-21T06:45:46.527Z,5.17
2022-08-21T06:48:18.919Z,4.50
2022-08-21T06:50:47.477Z,4.93
2022-08-21T06:53:20.259Z,6.90
2022-08-21T06:55:49.549Z,5.10
2022-08-21T06:58:18.049Z,4.77
2022-08-21T07:00:48.213Z,3.77
2022-08-21T07:03:21.205Z,3.53
2022-08-21T07:05:49.059Z,4.00
2022-08-21T07:08:18.502Z,2.30
2022-08-21T07:10:47.571Z,5.53
2022-08-21T07:13:15.529Z,4.57
2022-08-21T07:15:43.409Z,4.33
2022-08-21T07:18:11.212Z,6.13
2022-08-21T07:20:38.919Z,3.70
2022-08-21T07:23:10.922Z,7.30
2022-08-21T07:25:40.553Z,4.23
2022-08-21T07:28:08.302Z,4.77
2022-08-21T07:30:36.067Z,7.30
2022-08-21T07:33:04.815Z,7.17
2022-08-21T07:35:34.174Z,12.77
2022-08-21T07:38:02.036Z,8.50
2022-08-21T07:40:29.736Z,6.10
2022-08-21T07:42:59.016Z,6.20
2022-08-21T07:45:27.218Z,5.13
2022-08-21T07:47:57.489Z,5.40
2022-08-21T07:50:26.138Z,3.33
2022-08-21T07:52:54.734Z,7.00
2022-08-21T07:55:24.678Z,6.87
2022-08-21T07:57:52.524Z,7.57
2022-08-21T08:00:24.351Z,2.97
2022-08-21T08:02:55.093Z,8.93
2022-08-21T08:05:26.935Z,9.47
2022-08-21T08:07:55.142Z,4.07
2022-08-21T08:10:23.793Z,8.47
2022-08-21T08:12:52.848Z,7.20
2022-08-21T08:15:24.969Z,6.27
2022-08-21T08:17:53.167Z,7.60
2022-08-21T08:20:22.513Z,5.30
2022-08-21T08:22:50.613Z,3.13
2022-08-21T08:25:20.526Z,5.83
2022-08-21T08:27:48.292Z,4.27
2022-08-21T08:30:19.131Z,6.80
2022-08-21T08:32:50.459Z,5.60
2022-08-21T08:35:18.584Z,4.90
2022-08-21T08:37:52.370Z,11.57
2022-08-21T08:40:26.774Z,7.23
2022-08-21T08:42:54.489Z,6.53
2022-08-21T08:45:25.184Z,10.00
2022-08-21T08:47:59.019Z,7.33
2022-08-21T08:50:35.377Z,9.20
2022-08-21T08:53:08.266Z,7.30
2022-08-21T08:55:38.816Z,8.43
2022-08-21T08:58:07.243Z,5.97
2022-08-21T09:00:35.411Z,6.00
2022-08-21T09:03:05.411Z,6.33
2022-08-21T09:05:45.130Z,11.20
2022-08-21T09:08:43.539Z,7.73
2022-08-21T09:11:24.765Z,6.30
2022-08-21T09:14:02.258Z,5.63
2022-08-21T09:16:41.503Z,4.43
2022-08-21T09:19:26.098Z,4.80
2022-08-21T09:22:02.959Z,4.90
2022-08-21T09:24:34.498Z,6.67
2022-08-21T09:27:08.291Z,6.20
2022-08-21T09:29:38.794Z,5.50
2022-08-21T09:32:20.586Z,6.87
2022-08-21T09:35:01.961Z,8.60
2022-08-21T09:37:31.703Z,6.10
2022-08-21T09:40:00.488Z,5.17
2022-08-21T09:42:33.054Z,6.10
2022-08-21T09:45:12.264Z,6.00
2022-08-21T09:47:40.067Z,4.20
2022-08-21T09:50:16.064Z,6.63
2022-08-21T09:52:52.214Z,4.20
2022-08-21T09:55:51.164Z,10.50
2022-08-21T09:58:20.187Z,9.40
2022-08-21T10:00:48.139Z,4.40
2022-08-21T10:03:22.458Z,4.67
2022-08-21T10:05:58.952Z,5.30
2022-08-21T10:08:29.489Z,3.90
2022-08-21T10:11:03.119Z,4.90
2022-08-21T10:13:45.450Z,4.80
2022-08-21T10:16:26.259Z,8.40
2022-08-21T10:19:04.828Z,7.03
2022-08-21T10:21:43.079Z,5.20
2022-08-21T10:24:30.531Z,7.63
2022-08-21T10:27:12.982Z,6.83
2022-08-21T10:29:47.364Z,4.73
2022-08-21T10:32:27.438Z,5.10
2022-08-21T10:35:04.284Z,4.10
2022-08-21T10:37:44.939Z,3.67
2022-08-21T10:40:23.304Z,4.53
2022-08-21T10:43:04.271Z,6.03
2022-08-21T10:45:44.413Z,5.70
2022-08-21T10:48:22.219Z,4.00
2022-08-21T10:50:54.662Z,3.30
2022-08-21T10:53:37.966Z,4.20
2022-08-21T10:56:15.256Z,5.47
2022-08-21T10:58:51.512Z,2.53
2022-08-21T11:01:22.960Z,4.43
2022-08-21T11:03:56.500Z,3.13
2022-08-21T11:06:32.974Z,5.90
2022-08-21T11:09:12.943Z,7.60
2022-08-21T11:11:50.162Z,4.20
2022-08-21T11:14:38.244Z,4.90
2022-08-21T11:17:12.022Z,5.57
2022-08-21T11:19:47.523Z,9.10
2022-08-21T11:22:20.810Z,5.07
2022-08-21T11:24:56.660Z,3.03
2022-08-21T11:27:28.800Z,3.87
2022-08-21T11:29:59.406Z,2.90
2022-08-21T11:32:46.246Z,2.47
2022-08-21T11:35:25.274Z,3.20
2022-08-21T11:38:18.354Z,2.73
2022-08-21T11:41:04.216Z,3.43
2022-08-21T11:43:39.840Z,4.50
2022-08-21T11:46:27.464Z,3.20
2022-08-21T11:49:08.697Z,2.53
2022-08-21T11:51:41.377Z,4.83
2022-08-21T11:54:25.255Z,4.63
2022-08-21T11:57:01.659Z,3.63
2022-08-21T11:59:45.078Z,2.90
2022-08-21T12:02:17.186Z,2.97
2022-08-21T12:04:49.190Z,2.63
2022-08-21T12:07:31.833Z,4.50
2022-08-21T12:10:00.917Z,3.23
2022-08-21T12:12:31.922Z,3.20
2022-08-21T12:15:16.505Z,3.93
2022-08-21T12:17:56.354Z,3.67
2022-08-21T12:20:50.704Z,3.30
2022-08-21T12:23:28.958Z,5.23
2022-08-21T12:26:23.846Z,5.57
2022-08-21T12:28:53.295Z,3.17
2022-08-21T12:31:25.727Z,2.53
2022-08-21T12:33:59.180Z,3.43
2022-08-21T12:36:38.891Z,4.63
2022-08-21T12:39:13.294Z,6.07
2022-08-21T12:41:52.236Z,4.03
2022-08-21T12:44:26.642Z,12.50
2022-08-21T12:47:00.345Z,6.47
2022-08-21T12:49:34.122Z,4.20
2022-08-21T12:52:13.398Z,3.63
2022-08-21T12:54:44.342Z,2.23
2022-08-21T12:57:21.195Z,6.60
2022-08-21T12:59:56.810Z,3.70
2022-08-21T13:02:31.658Z,4.83
2022-08-21T13:05:00.456Z,3.73
2022-08-21T13:07:31.652Z,5.23
2022-08-21T13:10:06.717Z,4.87
2022-08-21T13:12:37.064Z,7.23
2022-08-21T13:15:09.082Z,3.00
2022-08-21T13:17:42.011Z,4.60
2022-08-21T13:20:12.359Z,2.93
2022-08-21T13:22:45.004Z,2.87
2022-08-21T13:25:14.119Z,2.67
2022-08-21T13:27:42.474Z,8.50
2022-08-21T13:30:15.631Z,3.57
2022-08-21T13:32:46.331Z,2.07
2022-08-21T13:35:17.705Z,8.03
2022-08-21T13:37:48.362Z,4.20
2022-08-21T13:40:19.737Z,9.83
2022-08-21T13:42:49.879Z,3.63
2022-08-21T13:45:25.129Z,36.13
2022-08-21T13:47:54.053Z,6.83
2022-08-21T13:50:24.956Z,6.20
2022-08-21T13:53:02.577Z,11.03
2022-08-21T13:55:40.227Z,11.00
2022-08-21T13:58:09.354Z,6.30
2022-08-21T14:00:47.976Z,7.73
2022-08-21T14:03:28.727Z,2.63
2022-08-21T14:05:56.514Z,2.60
2022-08-21T14:08:33.339Z,4.93
2022-08-21T14:11:02.568Z,5.23
2022-08-21T14:13:38.672Z,1.97
2022-08-21T14:16:16.536Z,1.83
2022-08-21T14:18:53.378Z,5.30
2022-08-21T14:21:34.253Z,3.30
2022-08-21T14:24:06.875Z,4.70
2022-08-21T14:26:38.277Z,2.90
2022-08-21T14:29:10.892Z,3.03
2022-08-21T14:31:43.346Z,3.10
2022-08-21T14:34:19.106Z,5.00
2022-08-21T14:36:47.907Z,2.70
2022-08-21T14:39:15.803Z,2.90
2022-08-21T14:41:43.859Z,2.30
2022-08-21T14:44:12.117Z,2.90
2022-08-21T14:46:55.314Z,3.67
2022-08-21T14:49:27.709Z,6.40
2022-08-21T14:51:58.559Z,5.73
2022-08-21T14:54:31.566Z,5.60
2022-08-21T14:57:02.633Z,7.37
2022-08-21T14:59:31.248Z,3.70
2022-08-21T15:02:05.379Z,3.13
2022-08-21T15:04:33.415Z,2.20
2022-08-21T15:07:01.295Z,3.83
2022-08-21T15:09:29.240Z,5.53
2022-08-21T15:12:00.591Z,5.20
2022-08-21T15:14:30.758Z,2.63
2022-08-21T15:16:58.818Z,4.83
2022-08-21T15:19:28.334Z,5.20
2022-08-21T15:21:56.212Z,3.60
2022-08-21T15:24:24.445Z,5.33
2022-08-21T15:26:53.134Z,2.20
2022-08-21T15:29:22.637Z,4.47
2022-08-21T15:31:56.657Z,5.20
2022-08-21T15:34:27.220Z,2.30
2022-08-21T15:36:58.152Z,3.60
2022-08-21T15:39:31.256Z,2.77
2022-08-21T15:41:59.924Z,3.53
2022-08-21T15:44:31.397Z,3.03
2022-08-21T15:47:00.737Z,4.23
2022-08-21T15:49:28.399Z,6.83
2022-08-21T15:51:57.428Z,3.10
2022-08-21T15:54:25.150Z,4.70
2022-08-21T15:56:53.543Z,3.70
2022-08-21T15:59:27.732Z,3.10
2022-08-21T16:01:55.603Z,3.77
2022-08-21T16:04:26.282Z,3.20
2022-08-21T16:07:01.770Z,5.00
2022-08-21T16:09:34.431Z,6.33
2022-08-21T16:12:03.350Z,6.23
2022-08-21T16:14:32.318Z,3.43
2022-08-21T16:17:00.291Z,3.70
2022-08-21T16:19:30.684Z,2.53
2022-08-21T16:21:58.346Z,3.00
2022-08-21T16:24:26.065Z,4.63
2022-08-21T16:26:58.067Z,2.53
2022-08-21T16:29:31.338Z,4.77
2022-08-21T16:31:59.070Z,5.03
2022-08-21T16:34:28.504Z,4.30
2022-08-21T16:36:56.264Z,3.50
2022-08-21T16:39:24.200Z,5.53
2022-08-21T16:41:52.040Z,4.13
2022-08-21T16:44:22.900Z,6.73
2022-08-21T16:46:50.849Z,3.47
2022-08-21T16:49:18.474Z,4.60
2022-08-21T16:51:46.088Z,5.30
2022-08-21T16:54:13.963Z,3.00
2022-08-21T16:56:45.713Z,2.83
2022-08-21T16:59:15.267Z,8.83
2022-08-21T17:01:47.073Z,3.43
2022-08-21T17:04:14.972Z,9.90
2022-08-21T17:06:44.014Z,6.87
2022-08-21T17:09:12.480Z,7.80
2022-08-21T17:11:42.725Z,4.60
2022-08-21T17:14:13.574Z,6.77
2022-08-21T17:16:46.335Z,5.83
2022-08-21T17:19:16.180Z,5.00
2022-08-21T17:21:45.706Z,5.03
2022-08-21T17:24:15.461Z,6.20
2022-08-21T17:26:44.313Z,8.07
2022-08-21T17:29:14.400Z,9.37
2022-08-21T17:31:43.499Z,24.33
2022-08-21T17:34:11.532Z,52.43
2022-08-21T17:36:40.679Z,47.27
2022-08-21T17:39:09.836Z,32.23
2022-08-21T17:41:37.967Z,38.77
2022-08-21T17:44:09.410Z,25.57
2022-08-21T17:46:39.668Z,18.10
2022-08-21T17:49:08.261Z,28.87
2022-08-21T17:51:36.164Z,33.07
2022-08-21T17:54:05.413Z,29.90
2022-08-21T17:56:36.185Z,16.50
2022-08-21T17:59:05.762Z,24.17
2022-08-21T18:01:36.492Z,28.00
2022-08-21T18:04:04.777Z,14.83
2022-08-21T18:06:32.669Z,15.67
2022-08-21T18:09:00.447Z,13.67
2022-08-21T18:11:31.887Z,12.23
2022-08-21T18:14:07.184Z,13.70
2022-08-21T18:16:37.469Z,7.73
2022-08-21T18:19:08.757Z,9.20
2022-08-21T18:21:39.117Z,9.00
2022-08-21T18:24:07.444Z,5.10
2022-08-21T18:26:39.000Z,11.33
2022-08-21T18:29:09.793Z,10.13
2022-08-21T18:31:40.101Z,6.77
2022-08-21T18:34:12.088Z,5.87
2022-08-21T18:36:39.985Z,6.37
2022-08-21T18:39:34.296Z,5.73
2022-08-21T18:41:57.285Z,6.00
2022-08-21T18:44:28.595Z,11.07
2022-08-21T18:46:58.085Z,7.17
2022-08-21T18:49:25.806Z,10.33
2022-08-21T18:51:53.793Z,7.37
2022-08-21T18:54:25.086Z,9.60
2022-08-21T18:56:54.981Z,11.00
2022-08-21T18:59:26.775Z,13.13
2022-08-21T19:01:54.973Z,8.63
2022-08-21T19:07:10.825Z,29.57
2022-08-21T19:09:38.559Z,34.03
2022-08-21T19:12:08.576Z,59.23
2022-08-21T19:14:40.862Z,36.60
2022-08-21T19:17:09.752Z,43.27
2022-08-21T19:19:39.389Z,33.20
2022-08-21T19:22:11.676Z,22.87
2022-08-21T19:24:40.229Z,25.70
2022-08-21T19:27:17.991Z,18.20
2022-08-21T19:29:47.023Z,23.20
2022-08-21T19:32:14.966Z,22.77
2022-08-21T19:34:43.276Z,21.57
2022-08-21T19:37:16.193Z,17.30
2022-08-21T19:42:34.585Z,13.97
2022-08-21T19:45:05.565Z,21.00
2022-08-21T19:47:33.741Z,26.20
2022-08-21T19:50:17.479Z,22.77
2022-08-21T19:52:55.040Z,22.43
2022-08-21T19:55:29.331Z,20.80
2022-08-21T19:57:57.225Z,21.97
2022-08-21T20:00:26.967Z,20.10
2022-08-21T20:02:54.597Z,19.27
2022-08-21T20:05:22.557Z,15.60
2022-08-21T20:07:50.473Z,19.73
2022-08-21T20:10:18.710Z,24.30
2022-08-21T20:12:50.505Z,165.53
2022-08-21T20:15:21.974Z,105.47
2022-08-21T20:17:52.152Z,46.20
2022-08-21T20:20:20.736Z,27.20
2022-08-21T20:22:48.521Z,19.67
2022-08-21T20:25:16.183Z,20.60
2022-08-21T20:27:49.112Z,16.00
2022-08-21T20:30:18.367Z,16.33
2022-08-21T20:32:51.813Z,13.33
2022-08-21T20:35:19.749Z,10.03
2022-08-21T20:37:58.527Z,11.67
2022-08-21T20:40:32.598Z,11.97
2022-08-21T20:43:02.443Z,10.40
2022-08-21T20:45:32.878Z,8.03
2022-08-21T20:48:08.008Z,12.27
2022-08-21T20:50:40.287Z,11.93
2022-08-21T20:53:13.231Z,11.10
2022-08-21T20:55:46.574Z,9.90
2022-08-21T20:58:22.171Z,10.20
2022-08-21T21:00:59.923Z,11.10
2022-08-21T21:03:35.131Z,8.40
2022-08-21T21:06:06.533Z,14.13
2022-08-21T21:08:40.606Z,10.13
2022-08-21T21:11:18.188Z,10.20
2022-08-21T21:13:50.530Z,9.30
2022-08-21T21:16:24.077Z,7.97
2022-08-21T21:19:01.543Z,10.13
2022-08-21T21:21:34.904Z,11.87
2022-08-21T21:24:08.461Z,11.77
2022-08-21T21:26:46.103Z,12.30
2022-08-21T21:29:21.657Z,9.93
2022-08-21T21:31:49.576Z,8.23
2022-08-21T21:34:18.729Z,15.23
2022-08-21T21:36:56.129Z,13.40
2022-08-21T21:39:35.981Z,8.57
2022-08-21T21:42:16.140Z,12.07
2022-08-21T21:45:11.550Z,9.10
2022-08-21T21:47:51.846Z,8.17
2022-08-21T21:50:33.789Z,10.73
2022-08-21T21:53:18.458Z,9.20
2022-08-21T21:56:07.966Z,11.67
2022-08-21T21:58:47.565Z,7.83
2022-08-21T22:01:22.106Z,10.07
2022-08-21T22:03:58.034Z,9.50
2022-08-21T22:06:35.615Z,9.53
2022-08-21T22:09:11.255Z,10.23
2022-08-21T22:14:40.726Z,12.47
2022-08-21T22:17:19.453Z,9.17
2022-08-21T22:19:50.711Z,10.23
2022-08-21T22:22:23.771Z,9.80
2022-08-21T22:24:55.181Z,13.63
2022-08-21T22:27:27.494Z,11.60
2022-08-21T22:29:58.605Z,13.77
2022-08-21T22:32:30.360Z,10.20
2022-08-21T22:35:03.051Z,9.87
2022-08-21T22:37:38.238Z,12.50
2022-08-21T22:40:07.850Z,10.50
2022-08-21T22:42:35.521Z,14.40
2022-08-21T22:45:09.388Z,14.13
2022-08-21T22:47:44.764Z,13.50
2022-08-21T22:50:21.451Z,11.67
2022-08-21T22:52:54.526Z,11.33
2022-08-21T22:55:25.770Z,18.00
2022-08-21T22:58:09.424Z,10.30
2022-08-21T23:00:51.393Z,13.03
2022-08-21T23:03:26.598Z,10.73
2022-08-21T23:06:00.686Z,11.07
2022-08-21T23:08:34.224Z,10.00
2022-08-21T23:11:08.758Z,10.50
2022-08-21T23:13:41.419Z,9.27
2022-08-21T23:16:24.278Z,9.60
2022-08-21T23:19:03.562Z,8.20
2022-08-21T23:21:43.105Z,9.63
2022-08-21T23:24:30.159Z,8.53
2022-08-21T23:27:14.695Z,8.33
2022-08-21T23:29:56.007Z,9.80
2022-08-21T23:32:52.381Z,8.87
2022-08-21T23:35:43.909Z,8.60
2022-08-21T23:38:22.856Z,7.13
2022-08-21T23:40:56.439Z,8.40
2022-08-21T23:43:40.750Z,10.23
2022-08-21T23:46:33.429Z,9.57
2022-08-21T23:49:13.744Z,15.40
2022-08-21T23:51:53.386Z,8.70
2022-08-21T23:54:25.394Z,11.23
